createdAt,value
2023-02-11T00:00:31.266Z,-9.49
2023-02-11T00:03:18.188Z,-9.46
2023-02-11T00:05:45.170Z,-9.41
2023-02-11T00:08:16.491Z,-9.41
2023-02-11T00:10:45.901Z,-9.44
2023-02-11T00:13:12.872Z,-9.43
2023-02-11T00:15:39.793Z,-9.41
2023-02-11T00:18:06.634Z,-9.38
2023-02-11T00:20:33.526Z,-9.35
2023-02-11T00:23:00.676Z,-9.30
2023-02-11T00:25:27.624Z,-9.26
2023-02-11T00:27:54.577Z,-9.23
2023-02-11T00:30:21.566Z,-9.19
2023-02-11T00:32:48.602Z,-9.21
2023-02-11T00:35:15.796Z,-9.24
2023-02-11T00:37:42.643Z,-9.25
2023-02-11T00:40:11.273Z,-9.23
2023-02-11T00:42:38.273Z,-9.19
2023-02-11T00:45:05.371Z,-9.17
2023-02-11T00:47:32.196Z,-9.15
2023-02-11T00:50:00.467Z,-9.12
2023-02-11T00:52:28.021Z,-9.08
2023-02-11T00:54:54.969Z,-9.04
2023-02-11T00:57:22.105Z,-9.00
2023-02-11T00:59:50.153Z,-8.95
2023-02-11T01:02:17.686Z,-8.90
2023-02-11T01:04:44.510Z,-8.85
2023-02-11T01:07:11.504Z,-8.82
2023-02-11T01:09:38.666Z,-8.80
2023-02-11T01:12:05.985Z,-8.77
2023-02-11T01:14:33.100Z,-8.76
2023-02-11T01:17:00.054Z,-8.75
2023-02-11T01:19:26.999Z,-8.74
2023-02-11T01:21:53.925Z,-8.72
2023-02-11T01:24:22.277Z,-8.70
2023-02-11T01:26:49.316Z,-8.68
2023-02-11T01:29:16.462Z,-8.66
2023-02-11T01:31:43.528Z,-8.66
2023-02-11T01:34:10.360Z,-8.66
2023-02-11T01:36:37.433Z,-8.65
2023-02-11T01:39:04.506Z,-8.64
2023-02-11T01:41:31.472Z,-8.62
2023-02-11T01:43:58.311Z,-8.61
2023-02-11T01:46:35.431Z,-8.61
2023-02-11T01:49:05.499Z,-8.60
2023-02-11T01:51:43.451Z,-8.59
2023-02-11T01:54:31.352Z,-8.60
2023-02-11T01:57:18.471Z,-8.60
2023-02-11T01:59:45.615Z,-8.62
2023-02-11T02:02:14.772Z,-8.64
2023-02-11T02:04:53.305Z,-8.64
2023-02-11T02:07:32.253Z,-8.65
2023-02-11T02:10:03.161Z,-8.65
2023-02-11T02:12:30.282Z,-8.64
2023-02-11T02:15:20.608Z,-8.63
2023-02-11T02:17:59.231Z,-8.63
2023-02-11T02:20:45.077Z,-8.64
2023-02-11T02:23:21.947Z,-8.65
2023-02-11T02:26:01.216Z,-8.65
2023-02-11T02:28:41.105Z,-8.64
2023-02-11T02:31:26.860Z,-8.63
2023-02-11T02:34:09.750Z,-8.62
2023-02-11T02:36:39.361Z,-8.63
2023-02-11T02:39:08.662Z,-8.62
2023-02-11T02:41:36.722Z,-8.63
2023-02-11T02:44:04.284Z,-8.64
2023-02-11T02:46:32.282Z,-8.64
2023-02-11T02:48:59.862Z,-8.65
2023-02-11T02:51:48.156Z,-8.64
2023-02-11T02:54:17.886Z,-8.63
2023-02-11T02:56:45.006Z,-8.63
2023-02-11T02:59:35.234Z,-8.63
2023-02-11T03:02:25.161Z,-8.64
2023-02-11T03:04:58.084Z,-8.65
2023-02-11T03:07:41.386Z,-8.66
2023-02-11T03:10:14.004Z,-8.65
2023-02-11T03:12:42.119Z,-8.65
2023-02-11T03:15:10.863Z,-8.68
2023-02-11T03:17:40.354Z,-8.72
2023-02-11T03:20:10.197Z,-8.79
2023-02-11T03:22:40.160Z,-8.86
2023-02-11T03:25:07.274Z,-8.88
2023-02-11T03:27:34.156Z,-8.88
2023-02-11T03:30:05.261Z,-8.88
2023-02-11T03:32:35.848Z,-8.86
2023-02-11T03:35:05.557Z,-8.85
2023-02-11T03:37:50.034Z,-8.84
2023-02-11T03:40:20.064Z,-8.83
2023-02-11T03:43:00.604Z,-8.82
2023-02-11T03:45:28.330Z,-8.83
2023-02-11T03:47:58.186Z,-8.83
2023-02-11T03:50:25.918Z,-8.88
2023-02-11T03:52:53.911Z,-8.98
2023-02-11T03:55:22.742Z,-9.04
2023-02-11T03:57:49.816Z,-9.08
2023-02-11T04:00:16.778Z,-9.13
2023-02-11T04:02:44.161Z,-9.17
2023-02-11T04:05:13.227Z,-9.24
2023-02-11T04:07:40.277Z,-9.31
2023-02-11T04:10:07.439Z,-9.36
2023-02-11T04:12:34.346Z,-9.43
2023-02-11T04:15:01.239Z,-9.51
2023-02-11T04:17:28.133Z,-9.58
2023-02-11T04:19:54.998Z,-9.62
2023-02-11T04:22:21.829Z,-9.67
2023-02-11T04:24:48.813Z,-9.72
2023-02-11T04:27:15.933Z,-9.77
2023-02-11T04:29:42.933Z,-9.83
2023-02-11T04:32:10.791Z,-9.85
2023-02-11T04:34:37.830Z,-9.88
2023-02-11T04:37:04.689Z,-9.93
2023-02-11T04:39:31.534Z,-9.97
2023-02-11T04:41:58.487Z,-10.01
2023-02-11T04:44:25.432Z,-10.06
2023-02-11T04:46:52.781Z,-10.10
2023-02-11T04:49:19.846Z,-10.13
2023-02-11T04:51:49.279Z,-10.15
2023-02-11T04:54:17.139Z,-10.16
2023-02-11T04:56:44.256Z,-10.17
2023-02-11T04:59:12.801Z,-10.18
2023-02-11T05:01:39.887Z,-10.25
2023-02-11T05:04:06.874Z,-10.32
2023-02-11T05:06:33.927Z,-10.40
2023-02-11T05:09:00.762Z,-10.40
2023-02-11T05:11:27.648Z,-10.37
2023-02-11T05:13:54.560Z,-10.36
2023-02-11T05:16:21.509Z,-10.41
2023-02-11T05:18:52.330Z,-10.45
2023-02-11T05:21:19.613Z,-10.44
2023-02-11T05:23:46.821Z,-10.43
2023-02-11T05:26:14.357Z,-10.40
2023-02-11T05:28:41.825Z,-10.37
2023-02-11T05:31:09.362Z,-10.33
2023-02-11T05:33:36.354Z,-10.30
2023-02-11T05:36:07.952Z,-10.30
2023-02-11T05:38:35.602Z,-10.28
2023-02-11T05:41:03.573Z,-10.24
2023-02-11T05:43:30.510Z,-10.21
2023-02-11T05:45:57.568Z,-10.19
2023-02-11T05:48:24.550Z,-10.18
2023-02-11T05:50:51.398Z,-10.21
2023-02-11T05:53:18.251Z,-10.24
2023-02-11T05:55:45.420Z,-10.27
2023-02-11T05:58:13.135Z,-10.29
2023-02-11T06:00:40.180Z,-10.33
2023-02-11T06:03:07.577Z,-10.36
2023-02-11T06:05:34.475Z,-10.34
2023-02-11T06:08:01.401Z,-10.30
2023-02-11T06:10:28.370Z,-10.24
2023-02-11T06:12:55.315Z,-10.17
2023-02-11T06:15:22.264Z,-10.15
2023-02-11T06:17:49.194Z,-10.07
2023-02-11T06:20:16.163Z,-9.97
2023-02-11T06:22:43.216Z,-9.86
2023-02-11T06:25:10.804Z,-9.76
2023-02-11T06:27:38.030Z,-9.67
2023-02-11T06:30:05.991Z,-9.58
2023-02-11T06:32:43.915Z,-9.47
2023-02-11T06:35:12.765Z,-9.36
2023-02-11T06:37:40.524Z,-9.26
2023-02-11T06:40:07.500Z,-9.15
2023-02-11T06:42:35.612Z,-9.04
2023-02-11T06:45:05.421Z,-8.92
2023-02-11T06:47:32.347Z,-8.79
2023-02-11T06:49:59.274Z,-8.64
2023-02-11T06:52:26.279Z,-8.48
2023-02-11T06:54:53.246Z,-8.32
2023-02-11T06:57:20.139Z,-8.17
2023-02-11T06:59:47.091Z,-8.04
2023-02-11T07:02:14.072Z,-7.89
2023-02-11T07:04:41.152Z,-7.74
2023-02-11T07:07:08.059Z,-7.60
2023-02-11T07:09:34.971Z,-7.43
2023-02-11T07:12:01.875Z,-7.24
2023-02-11T07:14:28.749Z,-7.05
2023-02-11T07:16:55.628Z,-6.86
2023-02-11T07:19:22.595Z,-6.67
2023-02-11T07:21:49.554Z,-6.49
2023-02-11T07:24:16.673Z,-6.31
2023-02-11T07:26:44.406Z,-6.15
2023-02-11T07:29:11.381Z,-5.99
2023-02-11T07:31:38.326Z,-5.84
2023-02-11T07:34:05.424Z,-5.68
2023-02-11T07:36:32.407Z,-5.51
2023-02-11T07:38:59.947Z,-5.36
2023-02-11T07:41:27.416Z,-5.21
2023-02-11T07:43:54.709Z,-5.04
2023-02-11T07:46:26.195Z,-4.89
2023-02-11T07:48:53.243Z,-4.68
2023-02-11T07:51:27.267Z,-4.49
2023-02-11T07:53:55.180Z,-4.28
2023-02-11T07:56:22.691Z,-4.08
2023-02-11T07:58:49.948Z,-3.85
2023-02-11T08:01:18.169Z,-3.61
2023-02-11T08:03:45.330Z,-3.38
2023-02-11T08:06:13.670Z,-3.19
2023-02-11T08:08:41.060Z,-3.01
2023-02-11T08:11:09.022Z,-2.86
2023-02-11T08:13:36.009Z,-2.72
2023-02-11T08:16:03.729Z,-2.57
2023-02-11T08:18:30.875Z,-2.44
2023-02-11T08:21:03.259Z,-2.35
2023-02-11T08:23:30.087Z,-2.30
2023-02-11T08:26:00.758Z,-2.33
2023-02-11T08:28:27.651Z,-2.29
2023-02-11T08:30:54.602Z,-2.15
2023-02-11T08:33:21.468Z,-1.94
2023-02-11T08:35:48.347Z,-1.68
2023-02-11T08:38:15.265Z,-1.47
2023-02-11T08:40:42.182Z,-1.24
2023-02-11T08:43:09.012Z,-1.03
2023-02-11T08:45:37.072Z,-0.79
2023-02-11T08:48:03.995Z,-0.61
2023-02-11T08:50:31.821Z,-0.54
2023-02-11T08:52:58.694Z,-0.42
2023-02-11T08:55:26.289Z,-0.16
2023-02-11T08:57:53.254Z,0.15
2023-02-11T09:00:20.360Z,0.38
2023-02-11T09:02:47.185Z,0.40
2023-02-11T09:05:14.176Z,0.36
2023-02-11T09:07:40.988Z,0.35
2023-02-11T09:10:08.345Z,0.33
2023-02-11T09:12:35.290Z,0.28
2023-02-11T09:15:02.391Z,0.27
2023-02-11T09:17:29.276Z,0.38
2023-02-11T09:19:56.141Z,0.64
2023-02-11T09:22:23.060Z,0.89
2023-02-11T09:24:50.031Z,1.04
2023-02-11T09:27:16.914Z,1.35
2023-02-11T09:29:43.896Z,1.78
2023-02-11T09:32:10.960Z,2.39
2023-02-11T09:34:38.000Z,3.13
2023-02-11T09:37:04.994Z,3.67
2023-02-11T09:39:31.815Z,3.84
2023-02-11T09:42:14.424Z,3.92
2023-02-11T09:44:44.320Z,3.91
2023-02-11T09:47:30.024Z,3.76
2023-02-11T09:49:59.990Z,3.34
2023-02-11T09:52:36.717Z,3.10
2023-02-11T09:55:11.214Z,2.54
2023-02-11T09:57:38.075Z,2.15
2023-02-11T10:00:16.863Z,2.02
2023-02-11T10:02:49.906Z,1.94
2023-02-11T10:05:36.700Z,1.61
2023-02-11T10:08:11.987Z,1.21
2023-02-11T10:10:42.032Z,0.95
2023-02-11T10:13:44.682Z,0.62
2023-02-11T10:16:20.428Z,0.35
2023-02-11T10:18:50.206Z,0.37
2023-02-11T10:21:20.088Z,0.47
2023-02-11T10:23:51.320Z,0.57
2023-02-11T10:26:18.709Z,0.59
2023-02-11T10:28:47.150Z,0.50
2023-02-11T10:31:40.285Z,0.38
2023-02-11T10:34:09.804Z,0.44
2023-02-11T10:36:38.298Z,0.63
2023-02-11T10:39:14.681Z,0.90
2023-02-11T10:41:44.557Z,1.10
2023-02-11T10:44:31.704Z,1.27
2023-02-11T10:47:01.414Z,1.57
2023-02-11T10:49:34.780Z,1.82
2023-02-11T10:52:15.772Z,1.98
2023-02-11T10:54:55.028Z,1.98
2023-02-11T10:57:24.336Z,1.87
2023-02-11T10:59:56.578Z,1.84
2023-02-11T11:02:23.941Z,2.03
2023-02-11T11:04:55.932Z,2.05
2023-02-11T11:07:27.796Z,1.95
2023-02-11T11:10:01.948Z,2.03
2023-02-11T11:12:31.272Z,2.05
2023-02-11T11:15:00.717Z,2.03
2023-02-11T11:17:30.786Z,1.78
2023-02-11T11:20:14.247Z,1.55
2023-02-11T11:22:41.906Z,1.24
2023-02-11T11:25:29.061Z,1.18
2023-02-11T11:27:58.732Z,1.05
2023-02-11T11:30:34.245Z,0.94
2023-02-11T11:33:01.739Z,0.95
2023-02-11T11:35:29.946Z,0.93
2023-02-11T11:38:01.762Z,0.84
2023-02-11T11:40:30.513Z,0.59
2023-02-11T11:43:03.442Z,0.45
2023-02-11T11:45:30.363Z,0.46
2023-02-11T11:48:00.337Z,0.40
2023-02-11T11:50:30.227Z,0.42
2023-02-11T11:53:19.881Z,0.42
2023-02-11T11:55:59.589Z,0.42
2023-02-11T11:58:27.648Z,0.38
2023-02-11T12:01:10.524Z,0.39
2023-02-11T12:03:37.308Z,0.38
2023-02-11T12:06:15.665Z,0.38
2023-02-11T12:08:45.479Z,0.46
2023-02-11T12:11:18.744Z,0.60
2023-02-11T12:13:57.254Z,0.67
2023-02-11T12:16:24.110Z,0.76
2023-02-11T12:18:51.169Z,0.82
2023-02-11T12:21:24.018Z,0.83
2023-02-11T12:24:04.567Z,0.86
2023-02-11T12:26:36.780Z,0.84
2023-02-11T12:29:06.475Z,0.81
2023-02-11T12:31:33.341Z,0.80
2023-02-11T12:34:09.156Z,0.65
2023-02-11T12:36:54.813Z,0.54
2023-02-11T12:39:27.614Z,0.55
2023-02-11T12:42:32.312Z,0.55
2023-02-11T12:45:05.491Z,0.44
2023-02-11T12:47:42.550Z,0.31
2023-02-11T12:50:15.514Z,0.20
2023-02-11T12:52:57.670Z,0.11
2023-02-11T12:55:29.700Z,0.03
2023-02-11T12:57:58.816Z,-0.00
2023-02-11T13:00:30.841Z,-0.03
2023-02-11T13:03:10.712Z,-0.07
2023-02-11T13:05:40.210Z,-0.08
2023-02-11T13:08:13.040Z,-0.06
2023-02-11T13:10:41.480Z,-0.05
2023-02-11T13:13:30.066Z,-0.14
2023-02-11T13:16:09.835Z,-0.13
2023-02-11T13:18:36.991Z,-0.05
2023-02-11T13:21:16.163Z,0.05
2023-02-11T13:23:54.045Z,0.11
2023-02-11T13:26:40.729Z,0.12
2023-02-11T13:29:19.929Z,0.10
2023-02-11T13:31:54.218Z,0.06
2023-02-11T13:34:25.889Z,0.08
2023-02-11T13:36:57.073Z,0.08
2023-02-11T13:39:24.217Z,0.09
2023-02-11T13:42:01.454Z,0.12
2023-02-11T13:44:28.424Z,0.15
2023-02-11T13:47:04.378Z,0.17
2023-02-11T13:49:41.741Z,0.13
2023-02-11T13:52:27.050Z,0.07
2023-02-11T13:54:55.402Z,-0.00
2023-02-11T13:57:26.575Z,-0.09
2023-02-11T13:59:58.448Z,-0.15
2023-02-11T14:02:52.028Z,-0.20
2023-02-11T14:05:42.598Z,-0.21
2023-02-11T14:08:28.349Z,-0.25
2023-02-11T14:10:55.180Z,-0.32
2023-02-11T14:13:26.596Z,-0.39
2023-02-11T14:16:09.922Z,-0.42
2023-02-11T14:18:39.633Z,-0.41
2023-02-11T14:21:12.579Z,-0.39
2023-02-11T14:23:40.557Z,-0.36
2023-02-11T14:26:10.455Z,-0.34
2023-02-11T14:28:38.421Z,-0.31
2023-02-11T14:31:19.417Z,-0.30
2023-02-11T14:33:49.494Z,-0.29
2023-02-11T14:36:16.423Z,-0.32
2023-02-11T14:39:09.622Z,-0.32
2023-02-11T14:41:41.414Z,-0.35
2023-02-11T14:44:14.097Z,-0.39
2023-02-11T14:46:45.144Z,-0.44
2023-02-11T14:49:17.585Z,-0.48
2023-02-11T14:51:44.533Z,-0.52
2023-02-11T14:54:14.793Z,-0.56
2023-02-11T14:56:42.073Z,-0.61
2023-02-11T14:59:15.993Z,-0.66
2023-02-11T15:01:45.324Z,-0.69
2023-02-11T15:04:26.021Z,-0.72
2023-02-11T15:06:53.668Z,-0.77
2023-02-11T15:09:28.911Z,-0.80
2023-02-11T15:11:57.399Z,-0.88
2023-02-11T15:14:24.249Z,-0.93
2023-02-11T15:16:55.541Z,-0.96
2023-02-11T15:19:22.472Z,-0.99
2023-02-11T15:21:50.333Z,-1.01
2023-02-11T15:24:23.931Z,-1.04
2023-02-11T15:26:57.813Z,-1.06
2023-02-11T15:29:26.342Z,-1.07
2023-02-11T15:32:04.408Z,-1.09
2023-02-11T15:34:31.915Z,-1.10
2023-02-11T15:36:58.833Z,-1.13
2023-02-11T15:39:35.143Z,-1.16
2023-02-11T15:42:17.515Z,-1.20
2023-02-11T15:44:44.950Z,-1.24
2023-02-11T15:47:13.265Z,-1.28
2023-02-11T15:49:43.819Z,-1.30
2023-02-11T15:52:12.218Z,-1.32
2023-02-11T15:54:39.696Z,-1.35
2023-02-11T15:57:09.383Z,-1.37
2023-02-11T15:59:38.478Z,-1.38
2023-02-11T16:02:08.189Z,-1.37
2023-02-11T16:04:35.712Z,-1.37
2023-02-11T16:07:02.632Z,-1.37
2023-02-11T16:09:34.287Z,-1.38
2023-02-11T16:12:19.015Z,-1.38
2023-02-11T16:14:46.461Z,-1.38
2023-02-11T16:17:23.578Z,-1.40
2023-02-11T16:19:51.563Z,-1.42
2023-02-11T16:22:27.022Z,-1.43
2023-02-11T16:24:55.709Z,-1.45
2023-02-11T16:27:31.754Z,-1.43
2023-02-11T16:29:58.752Z,-1.44
2023-02-11T16:32:26.918Z,-1.46
2023-02-11T16:34:55.202Z,-1.48
2023-02-11T16:37:22.156Z,-1.48
2023-02-11T16:39:49.069Z,-1.48
2023-02-11T16:42:15.980Z,-1.49
2023-02-11T16:44:42.922Z,-1.51
2023-02-11T16:47:16.885Z,-1.52
2023-02-11T16:49:43.896Z,-1.51
2023-02-11T16:52:15.335Z,-1.51
2023-02-11T16:54:42.493Z,-1.53
2023-02-11T16:57:30.396Z,-1.54
2023-02-11T16:59:58.756Z,-1.59
2023-02-11T17:02:27.078Z,-1.63
2023-02-11T17:04:54.680Z,-1.65
2023-02-11T17:07:21.800Z,-1.68
2023-02-11T17:09:48.752Z,-1.72
2023-02-11T17:12:15.666Z,-1.76
2023-02-11T17:14:42.491Z,-1.78
2023-02-11T17:17:10.182Z,-1.81
2023-02-11T17:19:37.348Z,-1.81
2023-02-11T17:22:04.442Z,-1.80
2023-02-11T17:24:31.634Z,-1.79
2023-02-11T17:26:58.481Z,-1.78
2023-02-11T17:29:25.827Z,-1.78
2023-02-11T17:31:52.903Z,-1.77
2023-02-11T17:34:20.847Z,-1.77
2023-02-11T17:36:47.838Z,-1.76
2023-02-11T17:39:14.762Z,-1.76
2023-02-11T17:41:41.718Z,-1.78
2023-02-11T17:44:10.207Z,-1.80
2023-02-11T17:46:37.122Z,-1.82
2023-02-11T17:49:03.940Z,-1.83
2023-02-11T17:51:32.179Z,-1.82
2023-02-11T17:54:00.927Z,-1.81
2023-02-11T17:56:29.393Z,-1.81
2023-02-11T17:58:56.316Z,-1.81
2023-02-11T18:01:26.376Z,-1.82
2023-02-11T18:03:53.212Z,-1.82
2023-02-11T18:06:21.161Z,-1.81
2023-02-11T18:08:48.118Z,-1.85
2023-02-11T18:11:15.898Z,-1.88
2023-02-11T18:13:43.340Z,-1.89
2023-02-11T18:16:15.009Z,-1.88
2023-02-11T18:18:42.610Z,-1.86
2023-02-11T18:21:13.489Z,-1.86
2023-02-11T18:23:40.924Z,-1.87
2023-02-11T18:26:08.406Z,-1.86
2023-02-11T18:28:35.374Z,-1.86
2023-02-11T18:31:02.749Z,-1.85
2023-02-11T18:33:30.053Z,-1.83
2023-02-11T18:35:57.222Z,-1.83
2023-02-11T18:38:24.446Z,-1.85
2023-02-11T18:40:51.888Z,-1.88
2023-02-11T18:43:19.490Z,-1.89
2023-02-11T18:45:47.318Z,-1.89
2023-02-11T18:48:14.831Z,-1.88
2023-02-11T18:50:44.097Z,-1.87
2023-02-11T18:53:11.842Z,-1.86
2023-02-11T18:55:39.487Z,-1.84
2023-02-11T18:58:06.725Z,-1.83
2023-02-11T19:00:34.384Z,-1.83
2023-02-11T19:03:01.461Z,-1.82
2023-02-11T19:05:32.743Z,-1.80
2023-02-11T19:08:00.157Z,-1.80
2023-02-11T19:10:27.771Z,-1.80
2023-02-11T19:13:00.812Z,-1.82
2023-02-11T19:15:28.040Z,-1.83
2023-02-11T19:17:55.024Z,-1.83
2023-02-11T19:20:21.926Z,-1.83
2023-02-11T19:22:48.803Z,-1.84
2023-02-11T19:25:15.654Z,-1.84
2023-02-11T19:27:42.638Z,-1.84
2023-02-11T19:30:09.935Z,-1.85
2023-02-11T19:32:36.973Z,-1.85
2023-02-11T19:35:03.967Z,-1.86
2023-02-11T19:37:30.886Z,-1.85
2023-02-11T19:39:57.836Z,-1.85
2023-02-11T19:42:27.490Z,-1.88
2023-02-11T19:44:54.723Z,-1.91
2023-02-11T19:47:27.262Z,-1.92
2023-02-11T19:49:54.613Z,-1.92
2023-02-11T19:52:21.515Z,-1.94
2023-02-11T19:54:48.483Z,-1.95
2023-02-11T19:57:15.337Z,-1.96
2023-02-11T19:59:42.187Z,-1.96
2023-02-11T20:02:12.412Z,-1.97
2023-02-11T20:04:39.479Z,-1.97
2023-02-11T20:07:06.437Z,-1.96
2023-02-11T20:09:33.298Z,-1.96
2023-02-11T20:12:00.216Z,-1.94
2023-02-11T20:14:28.162Z,-1.94
2023-02-11T20:16:55.160Z,-1.95
2023-02-11T20:19:22.121Z,-1.95
2023-02-11T20:21:51.535Z,-1.95
2023-02-11T20:24:19.044Z,-1.94
2023-02-11T20:26:47.655Z,-1.94
2023-02-11T20:29:18.148Z,-1.96
2023-02-11T20:31:45.279Z,-2.00
2023-02-11T20:34:12.570Z,-2.02
2023-02-11T20:36:39.940Z,-2.03
2023-02-11T20:39:07.285Z,-2.02
2023-02-11T20:41:35.302Z,-2.01
2023-02-11T20:44:04.393Z,-1.99
2023-02-11T20:46:32.517Z,-1.99
2023-02-11T20:49:00.190Z,-1.99
2023-02-11T20:51:29.974Z,-1.98
2023-02-11T20:53:57.101Z,-1.97
2023-02-11T20:56:28.166Z,-1.98
2023-02-11T20:58:56.413Z,-1.98
2023-02-11T21:01:28.143Z,-1.97
2023-02-11T21:03:56.629Z,-1.96
2023-02-11T21:06:25.151Z,-1.97
2023-02-11T21:08:52.918Z,-1.96
2023-02-11T21:11:20.139Z,-1.96
2023-02-11T21:13:48.194Z,-1.96
2023-02-11T21:16:16.881Z,-1.97
2023-02-11T21:18:46.165Z,-1.97
2023-02-11T21:21:13.068Z,-1.97
2023-02-11T21:23:40.073Z,-1.98
2023-02-11T21:26:07.496Z,-1.98
2023-02-11T21:28:35.253Z,-1.98
2023-02-11T21:31:02.975Z,-1.98
2023-02-11T21:33:33.007Z,-1.97
2023-02-11T21:36:01.166Z,-1.97
2023-02-11T21:38:28.220Z,-1.96
2023-02-11T21:40:55.042Z,-1.96
2023-02-11T21:43:21.978Z,-1.95
2023-02-11T21:45:49.728Z,-1.95
2023-02-11T21:48:17.308Z,-1.94
2023-02-11T21:50:46.342Z,-1.94
2023-02-11T21:53:13.408Z,-1.94
2023-02-11T21:55:40.711Z,-1.94
2023-02-11T21:58:07.674Z,-1.95
2023-02-11T22:00:34.784Z,-1.96
2023-02-11T22:03:01.788Z,-1.96
2023-02-11T22:05:28.752Z,-1.96
2023-02-11T22:07:55.816Z,-1.98
2023-02-11T22:10:22.884Z,-1.99
2023-02-11T22:12:49.764Z,-1.99
2023-02-11T22:15:16.694Z,-1.99
2023-02-11T22:17:43.506Z,-2.00
2023-02-11T22:20:10.697Z,-2.01
2023-02-11T22:22:37.727Z,-2.00
2023-02-11T22:25:04.801Z,-2.01
2023-02-11T22:27:31.786Z,-1.99
2023-02-11T22:29:58.705Z,-1.99
2023-02-11T22:32:25.720Z,-1.98
2023-02-11T22:34:53.498Z,-1.97
2023-02-11T22:37:20.481Z,-1.96
2023-02-11T22:39:47.345Z,-1.96
2023-02-11T22:42:14.326Z,-1.96
2023-02-11T22:44:41.223Z,-1.96
2023-02-11T22:47:08.109Z,-1.94
2023-02-11T22:49:35.162Z,-1.94
2023-02-11T22:52:03.036Z,-1.95
2023-02-11T22:54:30.868Z,-1.96
2023-02-11T22:56:57.784Z,-1.98
2023-02-11T22:59:24.626Z,-1.98
2023-02-11T23:01:51.744Z,-1.99
2023-02-11T23:04:18.736Z,-2.00
2023-02-11T23:06:47.144Z,-2.03
2023-02-11T23:09:14.391Z,-2.05
2023-02-11T23:11:41.500Z,-2.06
2023-02-11T23:14:09.654Z,-2.07
2023-02-11T23:16:36.619Z,-2.09
2023-02-11T23:19:05.250Z,-2.12
2023-02-11T23:21:33.028Z,-2.13
2023-02-11T23:24:04.982Z,-2.14
2023-02-11T23:26:31.974Z,-2.14
2023-02-11T23:28:59.413Z,-2.13
2023-02-11T23:31:28.288Z,-2.14
2023-02-11T23:33:55.249Z,-2.14
2023-02-11T23:36:23.069Z,-2.16
2023-02-11T23:38:50.468Z,-2.19
2023-02-11T23:41:17.735Z,-2.22
2023-02-11T23:43:48.051Z,-2.23
2023-02-11T23:46:15.021Z,-2.25
2023-02-11T23:48:41.886Z,-2.23
2023-02-11T23:51:09.368Z,-2.21
2023-02-11T23:53:37.017Z,-2.21
2023-02-11T23:56:08.467Z,-2.22
2023-02-11T23:58:35.903Z,-2.24
